Time;durP1;ratioP1;P1;durP2;ratioP2;P2;SDS_P1;SDS_P2;PMS_P1;PMS_P2;Temp;Humidity;BMP_temperature;BMP_pressure;BME280_temperature;BME280_humidity;BME280_pressure;Samples;Min_cycle;Max_cycle;Signal;HPM_P1;HPM_P2
2023/10/14 00:00:28;;;;;;;21.13;7.63;;;;;;;13.55;82.81;95604.19;5026190;28;20233;-70
2023/10/14 00:02:54;;;;;;;19.57;7.13;;;;;;;13.43;82.88;95604.81;5039977;28;20230;-70
2023/10/14 00:05:22;;;;;;;18.00;7.27;;;;;;;13.35;83.23;95612.09;5028208;28;20262;-70
2023/10/14 00:07:51;;;;;;;19.17;6.93;;;;;;;13.49;82.51;95606.63;5025436;28;20284;-70
2023/10/14 00:10:16;;;;;;;19.50;7.33;;;;;;;13.33;83.51;95608.81;5007763;28;20226;-70
2023/10/14 00:12:42;;;;;;;22.60;6.97;;;;;;;13.24;83.67;95599.50;5020486;28;20233;-70
2023/10/14 00:15:08;;;;;;;22.13;7.13;;;;;;;13.23;84.10;95596.06;5044129;28;20237;-72
2023/10/14 00:17:41;;;;;;;19.47;7.27;;;;;;;13.41;82.85;95592.88;5024627;28;20249;-74
2023/10/14 00:20:09;;;;;;;17.13;7.20;;;;;;;13.32;83.74;95588.81;5028541;28;20257;-73
2023/10/14 00:22:38;;;;;;;16.47;6.90;;;;;;;13.09;84.70;95597.03;5005934;28;20229;-73
2023/10/14 00:25:09;;;;;;;21.93;7.70;;;;;;;13.43;83.15;95593.47;5007259;28;20252;-72
2023/10/14 00:27:35;;;;;;;19.00;6.90;;;;;;;13.22;84.03;95594.44;5025843;28;20229;-73
2023/10/14 00:30:09;;;;;;;17.63;6.83;;;;;;;13.36;83.49;95584.75;5023610;28;20233;-73
2023/10/14 00:32:35;;;;;;;18.47;7.20;;;;;;;13.09;84.72;95585.69;5024144;28;20233;-73
2023/10/14 00:35:03;;;;;;;19.43;7.07;;;;;;;13.17;84.27;95585.53;5023533;28;20316;-74
2023/10/14 00:37:32;;;;;;;24.17;7.63;;;;;;;13.26;84.28;95585.16;4990882;28;20233;-73
2023/10/14 00:40:05;;;;;;;18.07;7.10;;;;;;;13.20;84.50;95587.78;5006200;28;20245;-73
2023/10/14 00:42:31;;;;;;;17.97;7.33;;;;;;;12.91;85.91;95588.88;4988490;28;20241;-73
2023/10/14 00:44:56;;;;;;;20.93;7.83;;;;;;;13.00;85.57;95585.06;4997340;28;20230;-71
2023/10/14 00:47:24;;;;;;;20.67;7.50;;;;;;;12.97;85.48;95584.66;5001407;28;20227;-70
2023/10/14 00:49:52;;;;;;;20.67;7.67;;;;;;;12.73;86.54;95588.59;5003624;28;20231;-70
2023/10/14 00:52:22;;;;;;;20.13;7.80;;;;;;;12.96;85.54;95585.66;5004514;28;20226;-70
2023/10/14 00:59:54;;;;;;;17.60;7.63;;;;;;;13.00;84.87;95566.66;5030765;28;20617;-70
2023/10/14 01:02:33;;;;;;;17.50;7.23;;;;;;;13.06;84.80;95568.53;4994183;28;20287;-70
2023/10/14 01:05:07;;;;;;;14.50;6.93;;;;;;;13.11;84.20;95560.06;5013088;28;20241;-69
2023/10/14 01:07:33;;;;;;;21.03;7.27;;;;;;;12.97;85.11;95558.38;5010542;28;20225;-69
2023/10/14 01:10:00;;;;;;;22.97;7.10;;;;;;;13.08;84.11;95556.00;5009484;28;20252;-71
2023/10/14 01:12:45;;;;;;;18.17;6.97;;;;;;;13.23;83.65;95564.50;5025218;28;20238;-70
2023/10/14 01:15:31;;;;;;;18.67;6.70;;;;;;;12.99;84.60;95561.63;5001057;28;20237;-70
2023/10/14 01:17:56;;;;;;;16.63;6.50;;;;;;;12.82;85.23;95561.94;5026538;28;20794;-73
2023/10/14 01:22:51;;;;;;;18.47;7.23;;;;;;;12.86;85.13;95549.25;5026646;28;20284;-73
2023/10/14 01:25:18;;;;;;;17.20;7.50;;;;;;;12.83;85.04;95550.44;5007344;28;20325;-73
2023/10/14 01:27:44;;;;;;;19.97;7.60;;;;;;;12.59;86.44;95548.34;5008232;28;20229;-73
2023/10/14 01:30:14;;;;;;;19.83;7.50;;;;;;;12.69;85.91;95547.97;5022262;28;20233;-72
2023/10/14 01:37:56;;;;;;;20.80;7.60;;;;;;;12.60;86.54;95541.28;5025646;28;20234;-71
2023/10/14 01:40:29;;;;;;;17.73;7.50;;;;;;;12.45;87.25;95548.47;4994055;28;20749;-74
2023/10/14 01:43:15;;;;;;;16.87;7.40;;;;;;;12.44;87.46;95542.41;5025780;28;20347;-77
2023/10/14 01:48:14;;;;;;;20.57;7.80;;;;;;;12.81;86.11;95538.50;5008504;28;20954;-76
2023/10/14 01:50:46;;;;;;;20.80;7.53;;;;;;;12.79;85.75;95546.59;5016389;28;20321;-76
2023/10/14 01:53:18;;;;;;;20.00;8.00;;;;;;;12.81;85.59;95544.59;5026485;28;20226;-70
2023/10/14 01:55:45;;;;;;;22.20;8.10;;;;;;;12.58;87.01;95546.72;4992841;28;20226;-70
2023/10/14 01:58:13;;;;;;;17.70;7.37;;;;;;;12.46;87.13;95540.41;5023715;28;20262;-69
2023/10/14 02:00:39;;;;;;;23.73;7.70;;;;;;;12.49;86.91;95545.25;5026319;28;20359;-69
2023/10/14 02:03:06;;;;;;;23.33;7.77;;;;;;;12.28;88.23;95539.31;5025639;28;20249;-69
2023/10/14 02:05:39;;;;;;;20.27;7.47;;;;;;;12.25;88.02;95537.09;5022914;28;20266;-70
2023/10/14 02:08:13;;;;;;;20.90;8.10;;;;;;;12.29;87.94;95543.56;5009116;28;20230;-70
2023/10/14 02:10:38;;;;;;;22.03;7.47;;;;;;;12.36;87.30;95537.34;5008836;28;20230;-69
2023/10/14 02:13:04;;;;;;;21.93;7.83;;;;;;;12.34;87.63;95536.72;5025080;28;20231;-70
2023/10/14 02:15:29;;;;;;;18.47;7.57;;;;;;;12.52;86.86;95541.44;5004524;28;20238;-70
2023/10/14 02:17:55;;;;;;;20.77;7.80;;;;;;;12.20;88.24;95532.41;5023960;28;20233;-69
2023/10/14 02:20:20;;;;;;;15.80;7.53;;;;;;;12.41;86.96;95534.13;5025464;28;20237;-70
2023/10/14 02:22:49;;;;;;;20.13;8.10;;;;;;;12.21;87.81;95535.84;5025616;28;20318;-70
2023/10/14 02:25:16;;;;;;;20.53;8.03;;;;;;;12.36;87.33;95533.91;4999480;28;20229;-68
2023/10/14 02:27:45;;;;;;;22.00;8.17;;;;;;;12.24;87.92;95532.84;5006998;28;20244;-69
2023/10/14 02:30:11;;;;;;;22.83;7.77;;;;;;;12.04;88.88;95530.91;4992769;28;20778;-69
2023/10/14 02:32:37;;;;;;;20.77;8.07;;;;;;;12.18;88.34;95528.38;5008380;28;20229;-69
2023/10/14 02:35:02;;;;;;;18.27;7.63;;;;;;;12.37;86.88;95531.06;5023908;28;20235;-69
2023/10/14 02:37:30;;;;;;;23.07;7.83;;;;;;;12.14;87.99;95520.88;5025649;28;20229;-69
2023/10/14 02:39:56;;;;;;;20.50;7.83;;;;;;;12.01;88.66;95526.03;5039835;28;20241;-68
2023/10/14 02:42:21;;;;;;;18.07;7.67;;;;;;;12.11;88.61;95520.44;5045067;28;20221;-69
2023/10/14 02:44:52;;;;;;;16.87;7.90;;;;;;;12.20;88.15;95524.56;4996640;28;20305;-69
2023/10/14 02:47:21;;;;;;;16.63;7.83;;;;;;;12.28;87.72;95526.19;5030222;28;20308;-69
2023/10/14 02:50:05;;;;;;;20.47;7.80;;;;;;;12.24;87.77;95519.72;5012086;28;20228;-70
2023/10/14 02:52:31;;;;;;;22.63;8.03;;;;;;;12.12;88.21;95525.50;5029209;28;20729;-70
2023/10/14 02:57:40;;;;;;;18.43;7.77;;;;;;;12.04;88.22;95522.22;5027574;28;20722;-68
2023/10/14 03:00:09;;;;;;;18.03;7.00;;;;;;;11.79;89.17;95521.88;5008919;28;20250;-79
2023/10/14 03:02:54;;;;;;;16.37;7.57;;;;;;;12.02;88.54;95517.19;5025353;28;20736;-78
2023/10/14 03:05:33;;;;;;;19.13;7.90;;;;;;;11.93;88.51;95520.97;5024067;28;20948;-77
2023/10/14 03:08:12;;;;;;;16.10;7.27;;;;;;;11.93;88.86;95517.53;5032014;28;20225;-79
2023/10/14 03:10:42;;;;;;;25.70;7.70;;;;;;;11.78;89.53;95522.88;5024766;28;20233;-78
2023/10/14 03:13:11;;;;;;;19.33;7.33;;;;;;;11.89;89.26;95524.16;4997371;28;20252;-79
2023/10/14 03:15:38;;;;;;;17.40;7.07;;;;;;;12.03;88.29;95518.81;5021751;28;20234;-78
2023/10/14 03:18:05;;;;;;;15.93;7.53;;;;;;;11.98;88.46;95518.56;4989339;28;20321;-78
2023/10/14 03:20:36;;;;;;;16.83;7.43;;;;;;;12.11;88.00;95521.25;5036830;28;20252;-78
2023/10/14 03:23:19;;;;;;;17.13;7.00;;;;;;;12.04;88.31;95516.97;5038592;28;20257;-78
2023/10/14 03:25:46;;;;;;;20.27;7.60;;;;;;;11.90;88.71;95521.34;5021379;28;20309;-78
2023/10/14 03:28:14;;;;;;;19.37;7.53;;;;;;;12.02;87.94;95527.69;5009032;28;20218;-79
2023/10/14 03:30:45;;;;;;;19.50;7.33;;;;;;;11.89;88.81;95519.72;5018167;28;20243;-79
2023/10/14 03:33:19;;;;;;;20.23;7.30;;;;;;;11.71;89.24;95529.88;5043935;28;20216;-79
2023/10/14 03:36:03;;;;;;;16.60;7.40;;;;;;;11.77;89.41;95528.31;5016957;28;20321;-78
2023/10/14 03:41:04;;;;;;;20.33;7.50;;;;;;;11.76;88.85;95527.50;5002806;28;20321;-79
2023/10/14 03:43:50;;;;;;;18.47;7.27;;;;;;;11.86;89.01;95529.78;5004266;28;20929;-79
2023/10/14 03:46:16;;;;;;;20.77;7.60;;;;;;;11.90;88.61;95517.91;4973663;28;20222;-79
2023/10/14 03:48:48;;;;;;;18.63;7.63;;;;;;;11.93;88.59;95520.97;4984919;28;20304;-78
2023/10/14 03:51:22;;;;;;;21.90;7.10;;;;;;;11.70;89.33;95509.91;5012966;28;20234;-78
2023/10/14 03:53:47;;;;;;;18.17;7.30;;;;;;;11.62;89.78;95515.28;5004477;28;20229;-77
2023/10/14 03:56:13;;;;;;;16.33;7.30;;;;;;;11.66;89.49;95516.50;4987394;28;20227;-79
2023/10/14 03:58:41;;;;;;;16.80;7.80;;;;;;;11.59;89.38;95515.66;5027399;28;20846;-78
2023/10/14 04:01:07;;;;;;;16.47;6.73;;;;;;;11.74;88.88;95503.28;4982684;28;20231;-78
2023/10/14 04:03:43;;;;;;;20.50;7.03;;;;;;;11.76;88.94;95505.72;5003477;28;20253;-70
2023/10/14 04:06:08;;;;;;;19.80;7.80;;;;;;;11.61;89.80;95503.16;5002438;28;20245;-69
2023/10/14 04:08:48;;;;;;;17.30;7.27;;;;;;;11.81;88.56;95505.94;4988387;28;20254;-79
2023/10/14 04:11:35;;;;;;;21.10;7.80;;;;;;;11.48;90.10;95503.09;5008335;28;20226;-79
2023/10/14 04:14:17;;;;;;;16.63;7.30;;;;;;;11.52;89.82;95502.50;4985057;28;20254;-79
2023/10/14 04:17:09;;;;;;;18.10;7.30;;;;;;;11.44;90.74;95501.81;4991842;28;20228;-70
2023/10/14 04:19:47;;;;;;;24.60;7.23;;;;;;;11.43;90.26;95497.59;4970856;28;20309;-77
2023/10/14 04:22:31;;;;;;;17.17;7.00;;;;;;;11.41;90.11;95497.81;5004186;28;20488;-78
2023/10/14 04:30:21;;;;;;;20.40;7.50;;;;;;;11.31;91.19;95499.94;5002665;28;20218;-77
2023/10/14 04:35:24;;;;;;;20.13;7.23;;;;;;;11.25;91.70;95499.84;5009621;28;20253;-78
2023/10/14 04:37:51;;;;;;;17.47;7.30;;;;;;;11.37;91.15;95506.19;4994193;28;20326;-78
2023/10/14 04:45:52;;;;;;;20.27;7.17;;;;;;;11.69;89.40;95504.88;4986998;28;20237;-78
2023/10/14 04:48:27;;;;;;;20.30;7.20;;;;;;;11.52;90.17;95504.31;4988478;28;20230;-78
2023/10/14 04:50:58;;;;;;;21.17;7.40;;;;;;;11.72;89.77;95504.50;4984119;28;20384;-79
2023/10/14 04:53:26;;;;;;;18.90;6.97;;;;;;;11.60;89.48;95509.41;5005925;28;20237;-78
2023/10/14 04:55:55;;;;;;;15.90;6.73;;;;;;;11.51;90.23;95502.72;4998331;28;20244;-78
2023/10/14 04:58:24;;;;;;;17.87;7.50;;;;;;;11.59;89.48;95510.41;5007223;28;20242;-77
2023/10/14 05:00:52;;;;;;;24.63;7.30;;;;;;;11.50;90.01;95501.06;4992463;28;20927;-79
2023/10/14 05:03:19;;;;;;;18.00;7.93;;;;;;;11.52;89.55;95512.19;5010184;28;20360;-78
2023/10/14 05:05:46;;;;;;;21.97;7.60;;;;;;;11.46;89.23;95510.34;4976334;28;20247;-77
2023/10/14 05:08:21;;;;;;;20.87;7.70;;;;;;;11.56;88.98;95510.78;4974458;28;20314;-78
2023/10/14 05:10:50;;;;;;;22.43;7.73;;;;;;;11.43;89.15;95508.09;5004960;28;20238;-78
2023/10/14 05:13:15;;;;;;;20.43;8.00;;;;;;;11.58;88.91;95510.63;4992809;28;20318;-79
2023/10/14 05:15:42;;;;;;;22.77;7.93;;;;;;;11.58;88.61;95510.63;4985750;28;20235;-78
2023/10/14 05:18:16;;;;;;;19.37;7.90;;;;;;;11.59;88.71;95512.22;5005232;28;20266;-79
2023/10/14 05:23:30;;;;;;;22.53;7.90;;;;;;;11.79;87.63;95518.44;5005208;28;20244;-76
2023/10/14 05:25:59;;;;;;;19.90;8.57;;;;;;;11.74;87.40;95516.41;5005727;28;20232;-78
2023/10/14 05:28:29;;;;;;;20.07;8.10;;;;;;;11.77;87.53;95521.28;5007628;28;20230;-78
2023/10/14 05:31:00;;;;;;;23.10;7.97;;;;;;;11.85;86.07;95526.34;4976391;28;20251;-77
2023/10/14 05:33:27;;;;;;;22.90;8.30;;;;;;;11.88;86.69;95522.53;4991696;28;20218;-77
2023/10/14 05:35:56;;;;;;;17.63;8.03;;;;;;;11.89;86.55;95524.97;4990079;28;20222;-79
2023/10/14 05:38:22;;;;;;;24.40;8.13;;;;;;;12.04;86.31;95527.47;4996168;28;20309;-79
2023/10/14 05:40:55;;;;;;;20.00;7.70;;;;;;;12.02;86.34;95532.91;5013921;28;20825;-76
2023/10/14 05:43:22;;;;;;;21.07;7.70;;;;;;;12.01;86.72;95533.13;5010005;28;20299;-76
2023/10/14 05:45:48;;;;;;;21.67;7.90;;;;;;;11.98;86.92;95531.69;5017576;28;20226;-78
2023/10/14 05:48:13;;;;;;;21.67;8.13;;;;;;;12.14;87.10;95536.63;5024552;28;20225;-78
2023/10/14 05:50:40;;;;;;;19.03;7.10;;;;;;;12.13;86.67;95540.25;4981027;28;20292;-79
2023/10/14 05:53:08;;;;;;;26.40;8.13;;;;;;;12.35;84.29;95540.13;5034587;28;20725;-78
2023/10/14 05:55:34;;;;;;;19.50;7.77;;;;;;;12.44;84.40;95546.88;4997432;28;20225;-78
2023/10/14 05:58:02;;;;;;;24.47;8.03;;;;;;;12.57;84.30;95547.72;5014122;28;21097;-79
2023/10/14 06:00:27;;;;;;;34.00;8.40;;;;;;;12.58;83.29;95557.25;5030381;28;20222;-79
2023/10/14 06:02:57;;;;;;;22.43;7.87;;;;;;;12.62;83.08;95549.75;5025338;28;20226;-78
2023/10/14 06:05:24;;;;;;;22.80;8.63;;;;;;;12.63;83.30;95551.41;5032854;28;20282;-78
2023/10/14 06:07:50;;;;;;;24.60;8.20;;;;;;;12.65;83.18;95544.13;5025561;28;20222;-78
2023/10/14 06:10:22;;;;;;;22.67;7.90;;;;;;;12.76;82.53;95544.34;5025248;28;20230;-79
2023/10/14 06:12:50;;;;;;;24.23;7.90;;;;;;;12.87;82.50;95545.63;5001437;28;20222;-78
2023/10/14 06:15:17;;;;;;;19.60;8.07;;;;;;;12.89;81.91;95542.78;4993465;28;20264;-79
2023/10/14 06:17:54;;;;;;;20.87;7.43;;;;;;;12.97;81.25;95548.66;5009974;28;20654;-78
2023/10/14 06:20:21;;;;;;;17.40;7.30;;;;;;;13.05;81.05;95545.03;5018171;28;20244;-78
2023/10/14 06:22:47;;;;;;;22.37;8.07;;;;;;;13.18;80.56;95545.09;5012085;28;20225;-77
2023/10/14 06:25:15;;;;;;;19.77;7.93;;;;;;;13.27;80.32;95546.53;5010310;28;20289;-78
2023/10/14 06:27:45;;;;;;;20.03;7.20;;;;;;;13.10;81.07;95546.09;4996362;28;20869;-79
2023/10/14 06:30:19;;;;;;;16.83;7.20;;;;;;;13.16;81.57;95542.66;5030791;28;20429;-78
2023/10/14 06:32:58;;;;;;;18.23;7.17;;;;;;;13.16;81.42;95534.78;5014555;28;20935;-79
2023/10/14 06:35:26;;;;;;;21.63;8.17;;;;;;;13.22;81.79;95536.63;5038914;28;20231;-79
2023/10/14 06:37:53;;;;;;;19.93;7.83;;;;;;;13.32;81.22;95537.03;4999417;28;20225;-77
2023/10/14 06:40:21;;;;;;;20.80;7.87;;;;;;;13.46;80.83;95536.03;4995944;28;20237;-79
2023/10/14 06:42:49;;;;;;;18.77;7.90;;;;;;;13.48;80.46;95534.00;5029000;28;20248;-79
2023/10/14 06:45:18;;;;;;;25.97;8.27;;;;;;;13.70;80.52;95541.69;5012856;28;20693;-78
2023/10/14 06:47:56;;;;;;;20.67;8.60;;;;;;;13.78;79.40;95530.97;5020207;28;20245;-79
2023/10/14 06:50:25;;;;;;;20.33;8.63;;;;;;;13.81;79.28;95531.34;5026610;28;20244;-79
2023/10/14 06:52:58;;;;;;;17.30;8.63;;;;;;;13.96;78.43;95531.13;4998132;28;20231;-78
2023/10/14 06:55:27;;;;;;;21.73;8.77;;;;;;;13.96;79.07;95526.69;5004616;28;20230;-79
2023/10/14 06:57:56;;;;;;;22.17;8.60;;;;;;;14.05;78.53;95519.38;4995234;28;20223;-79
2023/10/14 07:00:26;;;;;;;27.83;8.70;;;;;;;14.10;78.66;95530.09;5028972;28;20295;-77
2023/10/14 07:02:54;;;;;;;25.03;9.10;;;;;;;14.19;78.35;95521.78;4998290;28;20333;-79
2023/10/14 07:05:23;;;;;;;23.20;9.50;;;;;;;14.35;78.37;95527.63;5026560;28;20734;-79
2023/10/14 07:07:49;;;;;;;26.97;10.23;;;;;;;14.27;77.23;95531.28;4995802;28;20290;-79
2023/10/14 07:10:15;;;;;;;27.57;10.53;;;;;;;14.37;76.37;95522.97;5043840;28;20232;-79
2023/10/14 07:12:41;;;;;;;24.93;10.37;;;;;;;14.44;76.39;95523.75;5009617;28;20874;-79
2023/10/14 07:15:13;;;;;;;29.57;10.67;;;;;;;14.55;76.24;95523.91;5027267;28;20221;-79
2023/10/14 07:17:40;;;;;;;28.50;10.43;;;;;;;14.64;75.41;95522.66;5025145;28;20217;-79
2023/10/14 07:20:10;;;;;;;22.80;9.60;;;;;;;14.72;75.90;95522.41;5013199;28;20314;-79
2023/10/14 07:22:36;;;;;;;31.80;10.00;;;;;;;14.81;75.38;95521.16;5014093;28;20251;-78
2023/10/14 07:25:03;;;;;;;28.97;10.07;;;;;;;14.90;74.70;95518.28;5002549;28;20688;-78
2023/10/14 07:27:29;;;;;;;24.43;9.47;;;;;;;14.93;74.11;95509.94;4998553;28;20255;-79
2023/10/14 07:29:54;;;;;;;28.10;9.33;;;;;;;15.00;74.90;95505.47;4996340;28;20617;-78
2023/10/14 07:32:20;;;;;;;22.20;9.73;;;;;;;15.03;73.87;95502.38;5014205;28;20222;-78
2023/10/14 07:34:46;;;;;;;25.70;9.20;;;;;;;15.13;73.52;95500.91;4985450;28;20245;-79
2023/10/14 07:37:13;;;;;;;24.33;9.67;;;;;;;15.14;73.49;95499.84;5034579;28;20232;-79
2023/10/14 07:39:39;;;;;;;30.60;9.57;;;;;;;15.23;72.87;95495.97;5015138;28;20237;-80
2023/10/14 07:42:09;;;;;;;19.80;8.70;;;;;;;15.23;72.41;95498.59;5027675;28;20217;-79
2023/10/14 07:44:35;;;;;;;21.77;8.90;;;;;;;15.27;72.37;95491.88;5045038;28;20312;-79
2023/10/14 07:47:05;;;;;;;22.60;9.20;;;;;;;15.35;72.96;95493.44;5038091;28;20867;-80
2023/10/14 07:49:32;;;;;;;19.77;8.20;;;;;;;15.37;72.01;95496.66;5009255;28;20222;-79
2023/10/14 07:52:00;;;;;;;19.53;8.93;;;;;;;15.56;73.74;95485.19;5023703;28;20291;-79
2023/10/14 07:54:29;;;;;;;20.60;9.17;;;;;;;15.71;70.77;95485.66;5028549;28;20908;-79
2023/10/14 07:56:55;;;;;;;22.33;8.60;;;;;;;15.61;70.92;95484.53;5010627;28;20240;-80
2023/10/14 07:59:20;;;;;;;24.03;8.90;;;;;;;15.70;70.45;95470.03;5006643;28;20237;-78
2023/10/14 08:01:47;;;;;;;23.10;9.13;;;;;;;15.79;70.20;95474.00;4999769;28;20226;-79
2023/10/14 08:04:14;;;;;;;27.73;8.67;;;;;;;15.90;70.09;95468.00;5024977;28;20683;-79
2023/10/14 08:06:40;;;;;;;19.73;8.33;;;;;;;15.97;69.98;95468.75;5009835;28;20630;-79
2023/10/14 08:09:15;;;;;;;26.20;8.43;;;;;;;16.11;70.50;95465.75;5031886;28;20243;-80
2023/10/14 08:11:41;;;;;;;31.13;8.60;;;;;;;16.11;68.87;95471.03;5050040;28;20227;-78
2023/10/14 08:14:06;;;;;;;23.73;8.57;;;;;;;16.14;68.98;95470.56;5035909;28;20316;-80
2023/10/14 08:16:32;;;;;;;20.77;8.20;;;;;;;16.36;67.93;95464.88;5031682;28;20231;-78
2023/10/14 08:18:58;;;;;;;24.43;8.43;;;;;;;16.36;67.56;95460.38;5049522;28;20228;-79
2023/10/14 08:21:23;;;;;;;17.87;7.87;;;;;;;16.28;68.18;95468.59;5031884;28;20245;-79
2023/10/14 08:23:49;;;;;;;22.07;8.20;;;;;;;16.31;68.68;95451.50;5017756;28;20628;-77
2023/10/14 08:26:14;;;;;;;18.17;7.83;;;;;;;16.42;68.58;95453.41;5009239;28;20231;-79
2023/10/14 08:28:40;;;;;;;22.50;7.50;;;;;;;16.49;67.63;95454.94;5033156;28;20294;-79
2023/10/14 08:31:08;;;;;;;26.20;8.00;;;;;;;16.63;67.26;95450.31;5015424;28;20245;-78
2023/10/14 08:33:33;;;;;;;21.53;8.03;;;;;;;16.79;65.92;95444.38;5029290;28;20253;-79
2023/10/14 08:35:59;;;;;;;22.60;8.33;;;;;;;16.87;65.33;95441.44;5014179;28;21093;-77
2023/10/14 08:38:27;;;;;;;20.47;8.37;;;;;;;16.94;65.97;95442.16;4991004;28;20246;-77
2023/10/14 08:40:56;;;;;;;24.00;7.63;;;;;;;17.02;65.49;95435.72;5019579;28;20341;-79
2023/10/14 08:43:23;;;;;;;24.37;8.20;;;;;;;17.10;64.79;95427.47;4986086;28;20241;-78
2023/10/14 08:45:48;;;;;;;21.50;8.10;;;;;;;17.23;64.38;95435.19;4992969;28;20241;-78
2023/10/14 08:48:18;;;;;;;18.00;7.97;;;;;;;17.30;63.83;95431.41;4996169;28;20221;-78
2023/10/14 08:50:45;;;;;;;19.80;7.10;;;;;;;17.34;63.90;95421.97;5010807;28;20911;-80
2023/10/14 08:53:10;;;;;;;20.70;7.33;;;;;;;17.23;63.97;95424.59;4988363;28;20226;-77
2023/10/14 08:55:37;;;;;;;17.87;7.50;;;;;;;17.35;64.56;95418.31;5008785;28;20256;-77
2023/10/14 08:58:12;;;;;;;19.70;7.20;;;;;;;17.41;63.64;95409.44;5010953;28;20234;-79
2023/10/14 09:00:38;;;;;;;18.83;7.53;;;;;;;17.44;63.81;95410.81;5031210;28;20232;-78
2023/10/14 09:03:07;;;;;;;17.17;7.37;;;;;;;17.68;63.44;95419.59;5014931;28;20223;-80
2023/10/14 09:05:33;;;;;;;24.43;7.40;;;;;;;17.95;62.95;95410.13;5000409;28;20225;-78
2023/10/14 09:07:59;;;;;;;19.43;7.87;;;;;;;18.16;61.79;95410.31;5015810;28;20236;-81
2023/10/14 09:10:27;;;;;;;18.30;7.03;;;;;;;18.32;60.29;95408.78;5005902;28;20234;-80
2023/10/14 09:13:04;;;;;;;17.97;7.10;;;;;;;18.41;60.15;95401.28;5022612;28;20246;-82
2023/10/14 09:15:36;;;;;;;18.40;7.40;;;;;;;18.40;59.15;95403.13;4997114;28;20300;-79
2023/10/14 09:18:01;;;;;;;20.90;6.87;;;;;;;18.16;61.67;95396.28;4982696;28;20218;-81
2023/10/14 09:20:38;;;;;;;15.23;6.90;;;;;;;18.19;61.57;95387.88;5018703;28;20237;-79
2023/10/14 09:23:40;;;;;;;16.47;6.50;;;;;;;18.39;59.84;95393.53;5019921;28;20225;-81
2023/10/14 09:26:06;;;;;;;16.47;6.20;;;;;;;18.70;59.30;95384.38;5023772;28;20225;-82
2023/10/14 09:28:36;;;;;;;13.97;6.27;;;;;;;18.86;59.22;95380.13;5013615;28;20259;-82
2023/10/14 09:31:08;;;;;;;20.73;6.37;;;;;;;18.86;58.53;95377.47;5018536;28;20255;-83
2023/10/14 09:33:37;;;;;;;15.90;6.10;;;;;;;19.19;56.10;95366.88;5050254;28;20757;-80
2023/10/14 09:38:53;;;;;;;15.50;5.67;;;;;;;18.95;58.74;95360.09;5004719;28;20230;-80
2023/10/14 09:41:18;;;;;;;14.47;5.90;;;;;;;18.97;57.74;95355.34;5016872;28;20230;-82
2023/10/14 09:43:46;;;;;;;18.23;6.20;;;;;;;19.20;57.43;95348.03;5013259;28;20229;-81
2023/10/14 09:46:20;;;;;;;17.27;5.70;;;;;;;19.29;57.09;95341.28;5012990;28;20239;-82
2023/10/14 09:48:45;;;;;;;16.67;6.07;;;;;;;19.64;55.72;95333.03;5031555;28;20238;-81
2023/10/14 09:51:12;;;;;;;17.37;5.60;;;;;;;19.55;57.38;95329.22;5010114;28;20284;-82
2023/10/14 09:53:38;;;;;;;17.37;5.70;;;;;;;19.66;55.74;95322.97;5035367;28;20230;-82
2023/10/14 09:56:07;;;;;;;15.50;5.70;;;;;;;19.70;56.76;95321.47;5035685;28;20316;-81
2023/10/14 09:58:41;;;;;;;12.13;5.50;;;;;;;20.01;54.01;95322.63;5026242;28;20237;-82
2023/10/14 10:01:11;;;;;;;17.40;6.00;;;;;;;20.00;54.93;95305.06;4998091;28;20689;-81
2023/10/14 10:03:44;;;;;;;11.20;5.37;;;;;;;19.92;56.12;95305.50;4971414;28;20329;-82
2023/10/14 10:06:36;;;;;;;21.10;5.77;;;;;;;20.12;54.14;95306.53;5025931;28;20317;-79
2023/10/14 10:09:20;;;;;;;13.17;5.30;;;;;;;20.39;53.31;95298.63;5030764;28;20692;-82
2023/10/14 10:11:46;;;;;;;15.83;5.87;;;;;;;20.53;52.80;95291.03;5046527;28;20795;-82
2023/10/14 10:14:16;;;;;;;13.50;5.53;;;;;;;20.40;53.79;95292.25;5046334;28;20240;-82
2023/10/14 10:16:41;;;;;;;16.40;5.70;;;;;;;20.48;53.11;95283.00;5010469;28;20233;-82
2023/10/14 10:19:11;;;;;;;15.27;7.40;;;;;;;20.52;53.01;95284.91;4994422;28;20248;-82
2023/10/14 10:21:43;;;;;;;16.10;5.30;;;;;;;20.71;52.04;95280.81;4995569;28;20224;-83
2023/10/14 10:24:15;;;;;;;11.03;5.37;;;;;;;20.83;51.51;95273.47;5024350;28;20291;-70
2023/10/14 10:27:10;;;;;;;12.00;5.37;;;;;;;20.86;51.88;95271.34;5046496;28;20230;-69
2023/10/14 10:29:48;;;;;;;12.70;5.10;;;;;;;21.12;50.86;95258.00;5046148;28;20225;-69
2023/10/14 10:32:23;;;;;;;12.17;4.83;;;;;;;21.30;50.90;95262.91;5015433;28;20292;-69
2023/10/14 10:35:13;;;;;;;18.67;6.03;;;;;;;21.13;51.47;95251.63;5015031;28;20275;-82
2023/10/14 10:37:51;;;;;;;14.90;5.00;;;;;;;21.35;49.49;95244.28;5052280;28;20249;-82
2023/10/14 10:40:27;;;;;;;13.93;5.10;;;;;;;21.51;48.55;95244.38;5032175;28;20259;-80
2023/10/14 10:43:11;;;;;;;13.20;4.80;;;;;;;21.48;48.87;95240.38;5003566;28;20229;-79
2023/10/14 10:45:42;;;;;;;12.80;4.97;;;;;;;21.40;49.83;95231.00;5008803;28;21046;-81
2023/10/14 10:48:14;;;;;;;18.13;5.47;;;;;;;21.46;50.29;95224.66;5025837;28;20257;-82
2023/10/14 10:50:40;;;;;;;12.37;5.27;;;;;;;21.62;49.72;95222.03;5030728;28;20245;-83
2023/10/14 10:53:06;;;;;;;11.07;4.70;;;;;;;21.89;48.74;95222.72;5011324;28;20231;-81
2023/10/14 10:55:34;;;;;;;11.90;4.83;;;;;;;21.89;48.85;95209.38;5031411;28;20238;-81
2023/10/14 10:58:00;;;;;;;11.50;4.90;;;;;;;21.99;48.38;95212.09;5044469;28;20222;-82
2023/10/14 11:00:30;;;;;;;17.40;5.67;;;;;;;22.05;47.61;95201.16;5013506;28;20239;-80
2023/10/14 11:02:56;;;;;;;14.07;4.87;;;;;;;22.17;47.87;95194.78;5004210;28;20229;-83
2023/10/14 11:05:24;;;;;;;11.00;4.50;;;;;;;22.23;47.11;95197.19;5013397;28;20241;-82
2023/10/14 11:07:52;;;;;;;16.00;4.90;;;;;;;22.25;45.92;95195.06;5012534;28;20231;-81
2023/10/14 11:10:21;;;;;;;11.33;4.50;;;;;;;22.33;47.17;95189.19;5010944;28;20233;-82
2023/10/14 11:12:47;;;;;;;15.47;4.67;;;;;;;22.56;45.67;95179.88;5008298;28;20630;-81
2023/10/14 11:15:22;;;;;;;15.57;4.50;;;;;;;22.60;46.79;95172.91;5009098;28;20232;-82
2023/10/14 11:17:57;;;;;;;13.33;4.27;;;;;;;22.87;44.96;95178.00;5025569;28;20224;-84
2023/10/14 11:20:23;;;;;;;13.13;4.13;;;;;;;22.86;45.31;95177.19;4993728;28;20228;-83
2023/10/14 11:22:49;;;;;;;33.43;5.47;;;;;;;22.94;43.64;95165.97;5028110;28;20244;-84
2023/10/14 11:25:18;;;;;;;33.60;5.60;;;;;;;23.01;44.87;95160.34;5029396;28;20293;-81
2023/10/14 11:27:45;;;;;;;9.80;4.23;;;;;;;23.04;43.69;95157.16;4991760;28;20318;-81
2023/10/14 11:30:12;;;;;;;11.57;4.40;;;;;;;23.02;44.71;95157.44;5022470;28;20225;-82
2023/10/14 11:32:46;;;;;;;9.83;4.20;;;;;;;23.06;44.27;95153.13;5011231;28;20305;-81
2023/10/14 11:35:16;;;;;;;24.97;5.07;;;;;;;23.14;43.41;95149.13;5004592;28;21045;-83
2023/10/14 11:37:43;;;;;;;18.70;4.73;;;;;;;23.23;43.50;95147.47;5012040;28;20757;-82
2023/10/14 11:40:13;;;;;;;17.07;4.70;;;;;;;23.21;42.58;95144.28;5004536;28;20265;-80
2023/10/14 11:42:39;;;;;;;12.07;4.47;;;;;;;23.16;44.02;95139.75;4983748;28;20240;-82
2023/10/14 11:45:06;;;;;;;10.80;4.50;;;;;;;23.20;42.71;95145.34;5011943;28;20238;-84
2023/10/14 11:47:36;;;;;;;7.87;4.30;;;;;;;23.14;43.85;95133.09;5008673;28;20308;-82
2023/10/14 11:50:11;;;;;;;12.27;4.10;;;;;;;23.36;42.10;95125.53;5001224;28;20399;-82
2023/10/14 11:52:43;;;;;;;10.10;3.90;;;;;;;23.37;41.54;95135.16;5009777;28;20218;-83
2023/10/14 11:55:14;;;;;;;11.70;4.23;;;;;;;23.34;41.96;95123.13;5031136;28;20224;-81
2023/10/14 11:57:46;;;;;;;11.90;3.93;;;;;;;23.26;42.10;95126.34;5037687;28;20309;-82
2023/10/14 12:00:16;;;;;;;9.03;3.67;;;;;;;23.30;41.29;95127.41;5028701;28;20230;-84
2023/10/14 12:02:45;;;;;;;11.30;3.93;;;;;;;23.24;41.74;95107.13;4978593;28;20234;-81
2023/10/14 12:05:11;;;;;;;11.67;4.10;;;;;;;23.19;42.62;95109.03;5016076;28;20225;-80
2023/10/14 12:07:37;;;;;;;9.77;3.97;;;;;;;23.37;41.93;95105.78;5025830;28;20218;-81
2023/10/14 12:10:06;;;;;;;8.67;4.00;;;;;;;23.33;41.85;95099.34;4992369;28;20230;-83
2023/10/14 12:12:32;;;;;;;9.77;3.90;;;;;;;23.30;42.41;95098.03;4999275;28;20218;-84
2023/10/14 12:15:05;;;;;;;10.97;4.10;;;;;;;23.19;42.83;95093.00;5026010;28;20296;-81